Clovis, NM

4:08 AM MDT on April 26, 2017 (GMT -0600)
Clovis Municipal

Weather History for KCVN - October, 2012

Change the Weather History Date:

Saturday, October 13, 2012

  Actual Average Record
Temperature  
Mean Temperature 61 °F -  
Max Temperature 69 °F 73 °F 92 °F (1989)
Min Temperature 51 °F 44 °F 23 °F (1969)
Degree Days  
Heating Degree Days 4    
Growing Degree Days 11 (Base 50)    
Moisture  
Dew Point 42 °F    
Average Humidity 51    
Maximum Humidity 88    
Minimum Humidity 23    
Precipitation  
Precipitation 0.00 in - - ()
Sea Level Pressure  
Sea Level Pressure 30.01 in    
Wind  
Wind Speed 19 mph (West)    
Max Wind Speed 32 mph    
Max Gust Speed 43 mph    
Visibility 10 miles    
Events      
Averages and records for this station are not official NWS values.
T = Trace of Precipitation, MM = Missing Value Source: NWS Daily Summary

Daily Weather History Graph

Daily Weather History Graph

Search for Another Location

Airport or City:

Trip Planner

Search our weather history database for the weather conditions in past years. The results will help you decide how hot, cold, wet, or windy it might be!

Date:

Astronomy

Oct. 13, 2012 Rise Set
Actual Time 6:56 AM MDT 6:19 PM MDT
Civil Twilight 6:31 AM MDT 6:44 PM MDT
Nautical Twilight 6:02 AM MDT 7:14 PM MDT
Astronomical Twilight 5:32 AM MDT 7:43 PM MDT
Moon 4:52 AM MDT (10/13) 5:02 PM MDT (10/13)
Length of Visible Light 12h 13m
Length of Day
11h 23m
Waning Crescent, 4% of the Moon is Illuminated
Oct 13
Waning Crescent
Oct 15
New
Oct 21
First Quarter
Oct 29
Full
Nov 6
Last Quarter

Hourly Weather History & Observations

Time (MDT) Temp. Dew Point Humidity Pressure Visibility Wind Dir Wind Speed Gust Speed Precip Events Conditions
12:15 AM 62.6 °F 57.2 °F 82% 29.99 in 10.0 mi South 20.7 mph 25.3 mph N/A   Clear
12:35 AM 62.6 °F 57.2 °F 82% 29.98 in 10.0 mi South 25.3 mph 29.9 mph N/A   Clear
12:55 AM 62.6 °F 59.0 °F 88% 29.98 in 10.0 mi South 20.7 mph 28.8 mph N/A   Clear
1:15 AM 64.4 °F 59.0 °F 83% 29.98 in 10.0 mi South 24.2 mph 31.1 mph N/A   Clear
1:35 AM 62.6 °F 59.0 °F 88% 29.99 in 10.0 mi South 20.7 mph 29.9 mph N/A   Clear
1:55 AM 62.6 °F 59.0 °F 88% 29.99 in 10.0 mi South 20.7 mph 25.3 mph N/A   Partly Cloudy
2:15 AM 62.6 °F 59.0 °F 88% 29.99 in 10.0 mi South 18.4 mph 23.0 mph N/A   Scattered Clouds
2:35 AM 62.6 °F 57.2 °F 82% 29.99 in 10.0 mi South 18.4 mph - N/A   Partly Cloudy
2:55 AM 62.6 °F 57.2 °F 82% 29.98 in 10.0 mi SSW 18.4 mph - N/A   Clear
3:15 AM 62.6 °F 57.2 °F 82% 29.98 in 10.0 mi SSW 12.7 mph - N/A   Partly Cloudy
3:35 AM 62.6 °F 57.2 °F 82% 29.99 in 10.0 mi WSW 11.5 mph - N/A   Mostly Cloudy
3:55 AM 62.6 °F 57.2 °F 82% 29.99 in 10.0 mi SW 12.7 mph - N/A   Overcast
4:15 AM 62.6 °F 57.2 °F 82% 30.00 in 10.0 mi SW 13.8 mph - N/A   Overcast
4:55 AM 62.6 °F 57.2 °F 82% 30.01 in 10.0 mi WSW 10.4 mph - N/A   Overcast
5:15 AM 62.6 °F 57.2 °F 82% 30.01 in 10.0 mi SW 10.4 mph - N/A   Overcast
5:35 AM 60.8 °F 57.2 °F 88% 30.01 in 10.0 mi WSW 9.2 mph - N/A   Mostly Cloudy
5:55 AM 60.8 °F 55.4 °F 82% 30.01 in 10.0 mi West 8.1 mph - N/A   Partly Cloudy
6:15 AM 59.0 °F 53.6 °F 82% 30.01 in 10.0 mi West 6.9 mph - N/A   Clear
6:35 AM 57.2 °F 46.4 °F 67% 30.01 in 10.0 mi West 9.2 mph - N/A   Partly Cloudy
6:55 AM 55.4 °F 44.6 °F 67% 30.02 in 10.0 mi West 8.1 mph - N/A   Scattered Clouds
7:15 AM 55.4 °F 42.8 °F 63% 30.03 in 10.0 mi West 10.4 mph - N/A   Partly Cloudy
7:55 AM 55.4 °F 41.0 °F 58% 30.03 in 10.0 mi West 8.1 mph - N/A   Clear
8:35 AM 57.2 °F 41.0 °F 55% 30.03 in 10.0 mi West 12.7 mph - N/A   Clear
8:55 AM 60.8 °F 41.0 °F 48% 30.04 in 10.0 mi West 18.4 mph - N/A   Clear
9:15 AM 60.8 °F 39.2 °F 45% 30.04 in 10.0 mi WNW 24.2 mph 31.1 mph N/A   Clear
9:35 AM 62.6 °F 39.2 °F 42% 30.04 in 10.0 mi West 23.0 mph 27.6 mph N/A   Clear
9:55 AM 62.6 °F 39.2 °F 42% 30.04 in 10.0 mi WNW 19.6 mph 26.5 mph N/A   Clear
10:15 AM 64.4 °F 37.4 °F 37% 30.03 in 10.0 mi West 27.6 mph 34.5 mph N/A   Clear
10:35 AM 64.4 °F 37.4 °F 37% 30.02 in 10.0 mi West 23.0 mph 29.9 mph N/A   Clear
10:55 AM 64.4 °F 35.6 °F 34% 30.02 in 10.0 mi West 29.9 mph 38.0 mph N/A   Clear
11:35 AM 64.4 °F 33.8 °F 32% 30.03 in 10.0 mi West 25.3 mph 32.2 mph N/A   Clear
11:55 AM 66.2 °F 32.0 °F 28% 30.02 in 10.0 mi West 21.9 mph 34.5 mph N/A   Clear
12:15 PM 66.2 °F 33.8 °F 30% 30.01 in 10.0 mi West 23.0 mph 32.2 mph N/A   Clear
12:35 PM 66.2 °F 33.8 °F 30% 30.00 in 10.0 mi West 26.5 mph 34.5 mph N/A   Clear
12:55 PM 66.2 °F 32.0 °F 28% 29.99 in 10.0 mi West 23.0 mph 31.1 mph N/A   Clear
1:15 PM 68.0 °F 32.0 °F 26% 29.98 in 10.0 mi West 27.6 mph 34.5 mph N/A   Clear
1:35 PM 68.0 °F 33.8 °F 28% 29.98 in 8.0 mi West 25.3 mph 34.5 mph N/A   Clear
1:55 PM 68.0 °F 33.8 °F 28% 29.98 in 10.0 mi West 25.3 mph 36.8 mph N/A   Clear
2:15 PM 69.8 °F 33.8 °F 27% 29.97 in 9.0 mi West 24.2 mph 35.7 mph N/A   Clear
2:35 PM 69.8 °F 33.8 °F 27% 29.95 in 10.0 mi WSW 27.6 mph 34.5 mph N/A   Clear
2:55 PM 69.8 °F 33.8 °F 27% 29.96 in 8.0 mi West 25.3 mph 36.8 mph N/A   Clear
3:15 PM 69.8 °F 30.2 °F 23% 29.96 in 8.0 mi West 28.8 mph 34.5 mph N/A   Clear
3:35 PM 69.8 °F 32.0 °F 25% 29.96 in 8.0 mi West 32.2 mph 36.8 mph N/A   Clear
3:55 PM 69.8 °F 30.2 °F 23% 29.96 in 7.0 mi West 27.6 mph 36.8 mph N/A   Clear
4:15 PM 69.8 °F 30.2 °F 23% 29.97 in 4.0 mi West 26.5 mph 42.6 mph N/A   Clear
4:35 PM 69.8 °F 30.2 °F 23% 29.97 in 8.0 mi West 27.6 mph 36.8 mph N/A   Clear
4:55 PM 68.0 °F 32.0 °F 26% 29.97 in 10.0 mi West 21.9 mph - N/A   Clear
5:15 PM 68.0 °F 32.0 °F 26% 29.97 in 10.0 mi West 21.9 mph 29.9 mph N/A   Clear
5:35 PM 66.2 °F 30.2 °F 26% 29.98 in 10.0 mi West 21.9 mph 28.8 mph N/A   Clear
5:55 PM 66.2 °F 30.2 °F 26% 29.98 in 10.0 mi West 19.6 mph - N/A   Clear
6:35 PM 62.6 °F 32.0 °F 32% 30.00 in 10.0 mi West 12.7 mph - N/A   Clear
6:55 PM 62.6 °F 33.8 °F 34% 30.01 in 10.0 mi West 15.0 mph - N/A   Clear
7:15 PM 60.8 °F 33.8 °F 36% 30.02 in 10.0 mi West 13.8 mph - N/A   Clear
7:35 PM 60.8 °F 33.8 °F 36% 30.03 in 10.0 mi West 13.8 mph - N/A   Clear
8:15 PM 59.0 °F 35.6 °F 42% 30.05 in 10.0 mi West 12.7 mph - N/A   Clear
8:35 PM 59.0 °F 35.6 °F 42% 30.05 in 10.0 mi West 12.7 mph - N/A   Clear
8:55 PM 57.2 °F 35.6 °F 44% 30.07 in 10.0 mi WNW 10.4 mph - N/A   Clear
9:15 PM 57.2 °F 35.6 °F 44% 30.07 in 10.0 mi WNW 11.5 mph - N/A   Clear
10:15 PM 55.4 °F 35.6 °F 47% 30.09 in 10.0 mi West 10.4 mph - N/A   Clear
10:35 PM 55.4 °F 35.6 °F 47% 30.09 in 10.0 mi WNW 11.5 mph - N/A   Clear
10:55 PM 53.6 °F 37.4 °F 54% 30.11 in 10.0 mi WNW 11.5 mph - N/A   Clear
11:15 PM 53.6 °F 37.4 °F 54% 30.12 in 10.0 mi NW 11.5 mph - N/A   Clear
11:35 PM 53.6 °F 37.4 °F 54% 30.13 in 10.0 mi NW 12.7 mph - N/A   Clear
11:55 PM 51.8 °F 37.4 °F 58% 30.13 in 10.0 mi NW 10.4 mph - N/A   Clear